Time;durP1;ratioP1;P1;durP2;ratioP2;P2;SDS_P1;SDS_P2;PMS_P1;PMS_P2;Temp;Humidity;BMP_temperature;BMP_pressure;BME280_temperature;BME280_humidity;BME280_pressure;Samples;Min_cycle;Max_cycle;Signal;HPM_P1;HPM_P2
2022/01/02 04:03:05;;;;;;;10.43;2.90;;;11.70;87.90;;;;;;5071928;28;20429;-52
2022/01/02 04:05:31;;;;;;;3.50;2.47;;;11.70;87.80;;;;;;5071542;28;20020;-47
2022/01/02 04:07:57;;;;;;;5.45;3.33;;;11.80;87.50;;;;;;5070013;28;20489;-51
2022/01/02 04:10:23;;;;;;;8.75;2.55;;;11.80;87.50;;;;;;5071762;28;20021;-47
2022/01/02 04:12:48;;;;;;;13.50;5.15;;;11.80;87.40;;;;;;5071473;28;20039;-48
2022/01/02 04:15:15;;;;;;;5.00;3.28;;;11.80;87.60;;;;;;5070611;28;20499;-50
2022/01/02 04:17:42;;;;;;;4.93;2.58;;;11.80;87.70;;;;;;5070011;28;20032;-53
2022/01/02 04:20:10;;;;;;;12.68;3.03;;;11.80;87.80;;;;;;5071568;28;20043;-38
2022/01/02 04:22:36;;;;;;;7.80;2.50;;;11.80;88.00;;;;;;5071139;28;20112;-38
2022/01/02 04:25:03;;;;;;;7.18;2.90;;;11.80;87.80;;;;;;5071122;28;20094;-37
2022/01/02 04:27:29;;;;;;;10.63;3.10;;;11.80;87.90;;;;;;5070249;28;20036;-37
2022/01/02 04:29:55;;;;;;;14.48;2.63;;;11.80;88.00;;;;;;5071394;28;20357;-51
2022/01/02 04:32:20;;;;;;;8.23;3.33;;;11.90;87.90;;;;;;5071589;28;20025;-50
2022/01/02 04:34:46;;;;;;;9.20;3.03;;;11.90;87.90;;;;;;5071287;28;20388;-37
2022/01/02 04:37:13;;;;;;;9.85;3.00;;;11.90;87.90;;;;;;5070854;28;20445;-38
2022/01/02 04:39:39;;;;;;;12.05;5.32;;;11.90;88.40;;;;;;5071172;28;20035;-38
2022/01/02 04:42:05;;;;;;;5.18;2.95;;;11.80;88.50;;;;;;5071392;28;20146;-38
2022/01/02 04:44:31;;;;;;;8.40;3.13;;;11.80;88.70;;;;;;5069892;28;20025;-38
2022/01/02 04:46:57;;;;;;;13.05;3.92;;;11.80;88.80;;;;;;5071250;28;20366;-38
2022/01/02 04:49:22;;;;;;;10.68;3.00;;;11.80;89.20;;;;;;5071186;28;20056;-38
2022/01/02 04:51:48;;;;;;;8.15;3.50;;;11.90;89.00;;;;;;5070741;28;20032;-49
2022/01/02 04:54:14;;;;;;;11.38;3.38;;;11.90;89.30;;;;;;5070723;28;20020;-51
2022/01/02 04:56:41;;;;;;;15.40;4.13;;;11.90;89.30;;;;;;5070314;28;20035;-51
2022/01/02 04:59:06;;;;;;;7.15;3.08;;;11.90;89.50;;;;;;5069675;28;20107;-50
2022/01/02 05:01:32;;;;;;;9.10;4.28;;;11.90;89.50;;;;;;5070357;28;20124;-51
2022/01/02 05:03:57;;;;;;;7.85;3.40;;;11.90;89.50;;;;;;5070313;28;20052;-50
2022/01/02 05:06:23;;;;;;;14.15;3.83;;;11.90;89.80;;;;;;5069631;28;20016;-51
2022/01/02 05:08:49;;;;;;;8.73;3.45;;;11.90;90.10;;;;;;5070331;28;20028;-50
2022/01/02 05:11:15;;;;;;;11.07;4.07;;;12.00;89.90;;;;;;5070839;28;20127;-50
2022/01/02 05:13:40;;;;;;;9.25;3.72;;;12.00;90.00;;;;;;5061529;28;20353;-53
2022/01/02 05:16:06;;;;;;;12.75;2.97;;;12.00;89.90;;;;;;5057238;28;20163;-50
2022/01/02 05:18:32;;;;;;;11.90;4.78;;;11.90;90.20;;;;;;5057052;28;20095;-52
2022/01/02 05:20:58;;;;;;;11.98;3.00;;;12.00;90.20;;;;;;5057587;28;20036;-49
2022/01/02 05:23:24;;;;;;;14.45;3.05;;;12.10;89.90;;;;;;5057243;28;20110;-48
2022/01/02 05:25:50;;;;;;;11.00;3.25;;;12.20;89.40;;;;;;5057153;28;20029;-50
2022/01/02 05:28:15;;;;;;;7.53;2.88;;;12.20;89.30;;;;;;5055862;28;20036;-48
2022/01/02 05:30:42;;;;;;;15.88;5.03;;;12.30;88.90;;;;;;5054836;28;20021;-50
2022/01/02 05:33:08;;;;;;;10.98;3.55;;;12.20;88.90;;;;;;5057441;28;20029;-49
2022/01/02 05:35:34;;;;;;;8.10;2.85;;;12.30;88.60;;;;;;5057111;28;20424;-52
2022/01/02 05:38:00;;;;;;;10.88;2.65;;;12.30;88.50;;;;;;5056273;28;20093;-50
2022/01/02 05:40:34;;;;;;;12.25;3.30;;;12.40;87.90;;;;;;5056374;28;20500;-51
2022/01/02 05:43:05;;;;;;;8.13;2.83;;;12.40;87.90;;;;;;5056972;28;20036;-51
2022/01/02 05:45:32;;;;;;;7.28;2.70;;;12.40;88.00;;;;;;5056659;28;20029;-50
2022/01/02 05:47:58;;;;;;;9.85;3.20;;;12.30;88.40;;;;;;5056673;28;20028;-52
2022/01/02 05:50:24;;;;;;;11.43;3.55;;;12.30;88.10;;;;;;5056052;28;20083;-53
2022/01/02 05:52:50;;;;;;;7.00;3.10;;;12.30;88.60;;;;;;5056309;28;20063;-49
2022/01/02 05:55:16;;;;;;;10.40;4.32;;;12.30;88.70;;;;;;5056506;28;20029;-51
2022/01/02 05:57:42;;;;;;;8.73;3.58;;;12.30;88.60;;;;;;5057044;28;20028;-52
2022/01/02 06:00:09;;;;;;;11.52;3.92;;;12.30;88.80;;;;;;5055722;28;20194;-51
2022/01/02 06:02:36;;;;;;;6.53;3.55;;;12.20;89.10;;;;;;5057028;28;20049;-49
2022/01/02 06:05:03;;;;;;;11.80;3.40;;;12.20;89.10;;;;;;5057448;28;20025;-52
2022/01/02 06:07:31;;;;;;;6.85;3.00;;;12.30;88.80;;;;;;5057085;28;20147;-51
2022/01/02 06:09:57;;;;;;;13.52;4.38;;;12.30;88.80;;;;;;5055725;28;20128;-48
2022/01/02 06:12:23;;;;;;;11.82;3.45;;;12.20;89.00;;;;;;5056616;28;20064;-47
2022/01/02 06:14:49;;;;;;;9.88;3.33;;;12.20;89.10;;;;;;5057734;28;20048;-37
2022/01/02 06:17:15;;;;;;;14.77;4.55;;;12.20;89.20;;;;;;5057121;28;20032;-37
2022/01/02 06:19:41;;;;;;;9.07;3.30;;;12.20;89.50;;;;;;5056554;28;20040;-37
2022/01/02 06:22:06;;;;;;;10.40;3.15;;;12.20;89.40;;;;;;5055868;28;20071;-38
2022/01/02 06:24:32;;;;;;;9.75;3.53;;;12.10;89.90;;;;;;5055666;28;20014;-37
2022/01/02 06:26:58;;;;;;;8.55;3.45;;;12.20;89.60;;;;;;5055873;28;20017;-38
2022/01/02 06:29:23;;;;;;;9.65;3.65;;;12.10;89.90;;;;;;5055469;28;20021;-37
2022/01/02 06:31:49;;;;;;;6.90;2.78;;;12.10;90.00;;;;;;5056001;28;20025;-37
2022/01/02 06:34:14;;;;;;;6.72;3.88;;;12.20;89.60;;;;;;5056151;28;20488;-38
2022/01/02 06:36:40;;;;;;;10.93;3.72;;;12.00;89.90;;;;;;5056037;28;20028;-38
2022/01/02 06:39:06;;;;;;;11.77;3.83;;;12.00;90.10;;;;;;5056249;28;20058;-38
2022/01/02 06:41:31;;;;;;;13.38;3.63;;;12.00;90.30;;;;;;5055570;28;20109;-37
2022/01/02 06:43:57;;;;;;;13.98;3.83;;;11.90;90.40;;;;;;5056174;28;20021;-37
2022/01/02 06:46:22;;;;;;;8.68;4.15;;;11.90;90.70;;;;;;5055065;28;20039;-37
2022/01/02 06:48:48;;;;;;;13.02;4.43;;;11.90;90.70;;;;;;5054119;28;20424;-37
2022/01/02 06:51:14;;;;;;;14.30;4.75;;;12.10;90.20;;;;;;5055555;28;20100;-37
2022/01/02 06:53:39;;;;;;;9.13;4.18;;;11.80;90.50;;;;;;5054999;28;20106;-37
2022/01/02 06:56:05;;;;;;;14.68;4.93;;;11.80;90.90;;;;;;5054780;28;20029;-37
2022/01/02 06:58:31;;;;;;;12.20;4.78;;;11.80;91.20;;;;;;5054953;28;20025;-37
2022/01/02 07:00:57;;;;;;;12.98;3.72;;;11.70;91.50;;;;;;5054101;28;20087;-37
2022/01/02 07:03:26;;;;;;;12.88;4.20;;;11.70;91.60;;;;;;5053592;28;20032;-37
2022/01/02 07:05:52;;;;;;;15.02;3.97;;;11.70;91.60;;;;;;5055791;28;20021;-37
2022/01/02 07:08:18;;;;;;;13.80;5.40;;;11.70;91.50;;;;;;5054852;28;20530;-39
2022/01/02 07:10:43;;;;;;;8.77;3.67;;;11.70;91.20;;;;;;5054863;28;20021;-39
2022/01/02 07:13:09;;;;;;;11.02;4.20;;;11.80;91.00;;;;;;5054709;28;20021;-37
2022/01/02 07:15:34;;;;;;;16.17;4.07;;;11.80;90.70;;;;;;5054768;28;20021;-38
2022/01/02 07:18:00;;;;;;;8.23;4.00;;;11.80;90.50;;;;;;5054366;28;20028;-38
2022/01/02 07:20:26;;;;;;;11.18;4.45;;;11.80;90.40;;;;;;5055316;28;20063;-51
2022/01/02 07:22:52;;;;;;;10.70;5.57;;;11.90;90.20;;;;;;5054489;28;20136;-49
2022/01/02 07:25:18;;;;;;;11.43;3.05;;;11.70;90.40;;;;;;5052979;28;20032;-51
2022/01/02 07:27:44;;;;;;;15.43;3.42;;;11.70;90.40;;;;;;5054299;28;20029;-49
2022/01/02 07:30:10;;;;;;;12.05;3.90;;;11.60;90.70;;;;;;5055570;28;20052;-49
2022/01/02 07:32:37;;;;;;;12.68;3.63;;;11.70;90.60;;;;;;5055132;28;20081;-48
2022/01/02 07:35:06;;;;;;;10.85;3.75;;;11.80;90.50;;;;;;5054587;28;20054;-50
2022/01/02 07:37:32;;;;;;;16.77;4.95;;;11.70;90.40;;;;;;5054136;28;20099;-51
2022/01/02 07:39:58;;;;;;;9.73;3.60;;;11.70;90.10;;;;;;5054297;28;20067;-48
2022/01/02 07:42:24;;;;;;;12.05;4.40;;;11.80;89.80;;;;;;5055112;28;20114;-49
2022/01/02 07:44:49;;;;;;;8.48;4.53;;;11.80;89.60;;;;;;5055420;28;20104;-48
2022/01/02 07:47:15;;;;;;;11.93;3.53;;;11.80;89.10;;;;;;5054460;28;20100;-49
2022/01/02 07:49:41;;;;;;;13.63;4.25;;;11.80;89.20;;;;;;5054803;28;20044;-52
2022/01/02 07:52:06;;;;;;;8.15;3.38;;;11.80;89.20;;;;;;5055305;28;20037;-49
2022/01/02 07:54:32;;;;;;;11.15;3.05;;;11.90;88.70;;;;;;5053132;28;20029;-52
2022/01/02 07:56:57;;;;;;;7.28;3.40;;;11.90;89.00;;;;;;5054431;28;20511;-53
2022/01/02 07:59:23;;;;;;;11.65;3.25;;;11.90;88.60;;;;;;5054767;28;20044;-49
2022/01/02 14:03:06;;;;;;;6.00;3.45;;;13.00;78.90;;;;;;5092400;27;20106;-38
2022/01/02 14:05:47;;;;;;;4.18;3.10;;;13.10;78.80;;;;;;5074020;28;20115;-37
2022/01/02 14:08:17;;;;;;;4.95;2.85;;;13.10;78.50;;;;;;5092522;28;20027;-37
2022/01/02 14:10:44;;;;;;;10.30;4.22;;;13.10;78.50;;;;;;5091302;28;20046;-38
2022/01/02 14:13:15;;;;;;;7.30;3.42;;;13.10;78.70;;;;;;5091264;28;20021;-37
2022/01/02 14:16:02;;;;;;;7.35;3.28;;;13.10;79.10;;;;;;5091384;28;20021;-37
2022/01/02 14:18:29;;;;;;;9.48;2.97;;;13.20;78.50;;;;;;5110386;28;20104;-37
2022/01/02 14:21:00;;;;;;;8.82;3.03;;;13.10;78.70;;;;;;5093789;28;20020;-36
2022/01/02 14:23:27;;;;;;;13.82;3.03;;;13.10;78.80;;;;;;5112653;28;20020;-37
2022/01/02 14:25:53;;;;;;;4.03;2.90;;;13.10;78.90;;;;;;5111863;28;20356;-37
2022/01/02 14:28:19;;;;;;;9.75;2.80;;;13.00;79.00;;;;;;5110885;28;20030;-37
2022/01/02 14:30:45;;;;;;;4.20;3.47;;;13.10;78.80;;;;;;5111766;28;20024;-37
2022/01/02 14:33:10;;;;;;;4.05;2.45;;;13.10;78.80;;;;;;5111377;28;20020;-37
2022/01/02 14:35:36;;;;;;;10.88;3.33;;;13.10;78.70;;;;;;5111389;28;20468;-38
2022/01/02 14:38:02;;;;;;;9.18;3.20;;;13.10;78.80;;;;;;5093039;28;20024;-39
2022/01/02 14:40:27;;;;;;;7.78;2.92;;;13.20;78.70;;;;;;5111449;28;20020;-38
2022/01/02 14:42:53;;;;;;;8.75;3.03;;;13.10;78.80;;;;;;5110841;28;20027;-38
2022/01/02 14:45:19;;;;;;;4.72;3.30;;;13.10;78.90;;;;;;5112392;28;20436;-37
2022/01/02 14:47:45;;;;;;;6.10;2.53;;;13.10;79.20;;;;;;5111448;28;20031;-38
2022/01/02 14:50:13;;;;;;;11.25;3.03;;;13.10;79.00;;;;;;5111652;28;20027;-37
2022/01/02 14:52:40;;;;;;;9.00;3.53;;;13.10;79.20;;;;;;5110958;28;20034;-37
2022/01/02 14:55:17;;;;;;;7.10;2.35;;;13.10;79.50;;;;;;5093299;28;20034;-38
2022/01/02 14:57:45;;;;;;;7.43;3.38;;;13.10;79.60;;;;;;5110817;28;20044;-38
2022/01/02 15:00:15;;;;;;;4.30;2.33;;;13.10;79.50;;;;;;5092115;28;20024;-38
2022/01/02 15:02:42;;;;;;;6.68;2.85;;;13.00;79.70;;;;;;5110251;28;20043;-39
2022/01/02 15:05:10;;;;;;;6.13;2.78;;;13.10;79.80;;;;;;5110263;28;20032;-38
2022/01/02 15:07:36;;;;;;;6.50;2.30;;;13.00;79.80;;;;;;5092664;28;20111;-38
2022/01/02 15:10:04;;;;;;;6.82;3.85;;;13.00;80.00;;;;;;5116106;28;20047;-38
2022/01/02 15:12:30;;;;;;;7.60;2.92;;;13.00;79.90;;;;;;5109776;28;20020;-38
2022/01/02 15:15:02;;;;;;;4.47;2.40;;;13.00;80.00;;;;;;5098668;28;20032;-38
2022/01/02 15:17:27;;;;;;;6.90;2.70;;;13.00;80.00;;;;;;5097126;28;20027;-38
2022/01/02 15:19:53;;;;;;;8.70;2.88;;;13.00;79.90;;;;;;5096841;28;20035;-38
2022/01/02 15:22:19;;;;;;;6.80;3.10;;;13.00;80.20;;;;;;5097168;28;20024;-38
2022/01/02 15:24:45;;;;;;;9.93;3.40;;;12.90;80.30;;;;;;5078880;28;20020;-37
2022/01/02 15:27:11;;;;;;;6.95;2.90;;;12.90;80.50;;;;;;5097241;28;20016;-37
2022/01/02 15:29:36;;;;;;;9.75;3.10;;;12.80;80.20;;;;;;5096972;28;20054;-37
2022/01/02 15:32:07;;;;;;;11.15;3.05;;;12.90;80.50;;;;;;5096909;28;20430;-38
2022/01/02 15:34:33;;;;;;;2.90;2.25;;;12.90;80.40;;;;;;5096534;28;20024;-38
2022/01/02 15:36:59;;;;;;;6.10;3.25;;;12.90;80.60;;;;;;5097431;28;20032;-39
2022/01/02 15:39:24;;;;;;;10.00;3.65;;;12.80;80.70;;;;;;5096019;28;20031;-39
2022/01/02 15:41:50;;;;;;;5.53;2.83;;;12.80;80.90;;;;;;5096158;28;20484;-38
2022/01/02 15:44:16;;;;;;;7.25;2.78;;;12.80;80.80;;;;;;5097377;28;20046;-38
2022/01/02 15:46:43;;;;;;;9.45;2.80;;;12.80;80.90;;;;;;5077311;28;20150;-39
2022/01/02 15:49:09;;;;;;;9.13;3.78;;;12.80;81.30;;;;;;5096172;28;20426;-39
2022/01/02 15:51:34;;;;;;;7.50;2.78;;;12.80;80.90;;;;;;5095725;28;20054;-38
2022/01/02 15:54:00;;;;;;;11.68;4.45;;;12.80;81.10;;;;;;5096101;28;20020;-38
2022/01/02 15:56:26;;;;;;;5.18;2.63;;;12.80;80.90;;;;;;5096595;28;20028;-39
2022/01/02 15:58:52;;;;;;;10.45;3.88;;;12.80;80.90;;;;;;5096128;28;20032;-37
2022/01/02 16:01:17;;;;;;;10.38;3.10;;;12.80;80.70;;;;;;5095853;28;20414;-38
2022/01/02 16:03:43;;;;;;;12.93;4.30;;;12.80;80.60;;;;;;5095948;28;20081;-38
2022/01/02 16:06:09;;;;;;;8.07;2.88;;;12.80;80.80;;;;;;5095526;28;20026;-38
2022/01/02 16:08:35;;;;;;;5.40;3.38;;;12.80;80.70;;;;;;5095318;28;20024;-37
2022/01/02 16:11:01;;;;;;;11.77;3.38;;;12.80;80.60;;;;;;5077464;28;20024;-38
2022/01/02 16:13:33;;;;;;;14.35;3.92;;;12.90;80.40;;;;;;5095377;28;20084;-38
2022/01/02 16:15:59;;;;;;;7.43;3.00;;;12.80;80.60;;;;;;5076858;28;20020;-38
2022/01/02 16:18:24;;;;;;;8.02;3.63;;;12.80;80.50;;;;;;5095883;28;20044;-38
2022/01/02 16:20:50;;;;;;;6.40;3.17;;;12.90;80.40;;;;;;5095460;28;20043;-39
2022/01/02 16:23:17;;;;;;;11.85;3.60;;;12.80;80.60;;;;;;5077786;28;20069;-39
2022/01/02 16:25:44;;;;;;;10.45;4.35;;;12.80;80.50;;;;;;5094521;28;20102;-37
2022/01/02 16:28:11;;;;;;;6.05;2.42;;;12.80;80.30;;;;;;5096115;28;20028;-37
2022/01/02 16:30:43;;;;;;;10.18;3.70;;;12.80;80.50;;;;;;5095423;28;20024;-37
2022/01/02 16:33:10;;;;;;;12.93;3.35;;;12.80;80.50;;;;;;5095411;28;20024;-37
2022/01/02 16:35:35;;;;;;;11.25;4.55;;;12.90;80.10;;;;;;5095699;28;20402;-38
2022/01/02 16:38:01;;;;;;;11.18;3.47;;;12.90;80.20;;;;;;5096167;28;20024;-38
2022/01/02 16:40:27;;;;;;;5.45;3.90;;;12.80;80.40;;;;;;5096866;28;20079;-37
2022/01/02 16:42:53;;;;;;;6.38;2.83;;;12.80;80.50;;;;;;5077187;28;20058;-37
2022/01/02 16:45:19;;;;;;;10.70;3.22;;;12.80;79.90;;;;;;5095670;28;20116;-37
2022/01/02 16:47:48;;;;;;;8.57;3.70;;;12.80;80.00;;;;;;5095273;28;20057;-37
2022/01/02 16:50:13;;;;;;;12.73;4.40;;;12.80;80.30;;;;;;5094840;28;20031;-37
2022/01/02 16:52:39;;;;;;;11.10;3.83;;;12.80;80.30;;;;;;5095440;28;20024;-38
2022/01/02 16:55:05;;;;;;;8.13;2.85;;;12.80;80.10;;;;;;5095018;28;20107;-38
2022/01/02 16:57:31;;;;;;;8.25;3.13;;;12.70;80.20;;;;;;5095742;28;20385;-45
2022/01/02 17:00:00;;;;;;;7.47;2.90;;;12.70;79.70;;;;;;5097866;28;20024;-38
2022/01/02 17:02:25;;;;;;;6.10;3.67;;;12.70;79.80;;;;;;5100230;28;20468;-37
2022/01/02 17:04:52;;;;;;;11.00;3.38;;;12.70;80.00;;;;;;5098901;28;20028;-38
2022/01/02 17:07:18;;;;;;;11.73;3.28;;;12.60;79.90;;;;;;5096736;28;20464;-38
2022/01/02 17:09:44;;;;;;;8.13;3.10;;;12.70;79.70;;;;;;5098786;28;20012;-37
2022/01/02 17:12:10;;;;;;;10.18;3.33;;;12.70;79.60;;;;;;5096102;28;20031;-37
2022/01/02 17:14:38;;;;;;;8.57;2.75;;;12.60;79.60;;;;;;5095358;28;20031;-37
2022/01/02 17:17:04;;;;;;;10.93;3.08;;;12.60;79.70;;;;;;5076093;28;20031;-37
2022/01/02 17:19:30;;;;;;;7.07;3.38;;;12.60;79.80;;;;;;5077419;28;20031;-37
2022/01/02 17:21:56;;;;;;;9.50;3.40;;;12.50;80.20;;;;;;5097088;28;20081;-44
2022/01/02 17:24:22;;;;;;;15.88;5.57;;;12.50;80.20;;;;;;5099974;28;20024;-38
2022/01/02 17:26:49;;;;;;;7.88;4.00;;;12.40;80.30;;;;;;5099057;28;20020;-37
2022/01/02 17:29:15;;;;;;;8.63;3.55;;;12.40;80.50;;;;;;5101079;28;20035;-37
2022/01/02 17:32:08;;;;;;;14.52;6.00;;;12.40;80.60;;;;;;5100024;28;20024;-38
2022/01/02 17:34:36;;;;;;;19.77;5.68;;;12.30;80.90;;;;;;5081157;28;20020;-37
2022/01/02 17:37:04;;;;;;;10.23;3.88;;;12.30;81.30;;;;;;5099117;28;20024;-37
2022/01/02 17:39:31;;;;;;;11.45;4.25;;;12.30;81.20;;;;;;5097116;28;20027;-38
2022/01/02 17:41:58;;;;;;;8.27;3.35;;;12.30;81.50;;;;;;5077654;28;20337;-37
2022/01/02 17:44:25;;;;;;;10.52;4.30;;;12.30;81.80;;;;;;5096004;28;20020;-38
2022/01/02 17:46:52;;;;;;;11.25;4.50;;;12.30;81.70;;;;;;5094349;28;20016;-38
2022/01/02 17:49:19;;;;;;;12.65;4.03;;;12.30;81.70;;;;;;5094037;28;20028;-38
2022/01/02 17:51:45;;;;;;;8.82;3.63;;;12.30;81.90;;;;;;5094113;28;20035;-37
2022/01/02 17:54:12;;;;;;;4.22;2.83;;;12.30;82.10;;;;;;5076377;28;20418;-38
2022/01/02 17:56:38;;;;;;;9.90;4.00;;;12.30;82.00;;;;;;5094425;28;20031;-38
2022/01/02 17:59:05;;;;;;;10.30;3.53;;;12.30;82.10;;;;;;5094687;28;20020;-46
2022/01/02 18:01:32;;;;;;;8.48;3.25;;;12.30;82.20;;;;;;5075676;28;20496;-38
2022/01/02 18:04:02;;;;;;;8.57;3.72;;;12.30;82.50;;;;;;5075685;28;20024;-38
2022/01/02 18:06:27;;;;;;;6.60;2.85;;;12.30;82.70;;;;;;5094001;28;20020;-38
2022/01/02 18:08:58;;;;;;;13.77;4.60;;;12.30;82.70;;;;;;5093511;28;20031;-38
2022/01/02 18:11:23;;;;;;;7.63;2.58;;;12.40;82.70;;;;;;5094292;28;20058;-41
2022/01/02 18:13:49;;;;;;;6.20;3.20;;;12.30;82.90;;;;;;5094116;28;20052;-37
2022/01/02 18:16:18;;;;;;;6.80;3.30;;;12.30;82.80;;;;;;5096319;28;20077;-39
2022/01/02 18:18:47;;;;;;;11.73;3.58;;;12.30;83.00;;;;;;5076564;28;20020;-38
2022/01/02 18:21:14;;;;;;;11.20;3.70;;;12.30;83.50;;;;;;5094387;28;20075;-37
2022/01/02 18:23:43;;;;;;;7.22;3.50;;;12.20;83.90;;;;;;5093287;28;20027;-42
2022/01/02 18:26:12;;;;;;;6.15;3.45;;;12.20;84.30;;;;;;5094849;28;20016;-39
2022/01/02 18:28:39;;;;;;;9.80;3.50;;;12.10;84.60;;;;;;5094113;28;20095;-38
2022/01/02 18:31:05;;;;;;;9.05;3.08;;;12.20;84.90;;;;;;5078027;28;20021;-38
2022/01/02 18:33:31;;;;;;;8.32;3.80;;;12.20;85.20;;;;;;5075432;28;20032;-37
2022/01/02 18:35:56;;;;;;;8.60;3.65;;;12.10;85.30;;;;;;5097626;28;20499;-39
2022/01/02 18:38:22;;;;;;;10.82;3.05;;;12.20;85.20;;;;;;5093067;28;20429;-38
2022/01/02 18:40:49;;;;;;;14.75;3.63;;;12.10;85.90;;;;;;5093923;28;20525;-38
2022/01/02 18:43:16;;;;;;;11.07;3.83;;;12.00;86.90;;;;;;5092821;28;20028;-38
2022/01/02 18:45:42;;;;;;;14.48;4.22;;;11.90;87.30;;;;;;5093337;28;20027;-38
2022/01/02 18:48:07;;;;;;;8.07;3.67;;;11.80;88.30;;;;;;5075917;28;20016;-38
2022/01/02 18:50:33;;;;;;;10.48;3.90;;;11.60;90.20;;;;;;5100651;28;20020;-38
2022/01/02 18:52:59;;;;;;;7.60;3.72;;;11.30;90.60;;;;;;5101845;28;20024;-38
2022/01/02 18:55:25;;;;;;;7.45;4.18;;;11.20;91.20;;;;;;5101684;28;20032;-40
2022/01/02 18:57:51;;;;;;;9.98;4.30;;;11.10;91.40;;;;;;5102116;28;20487;-38
2022/01/02 19:00:17;;;;;;;6.93;3.40;;;11.10;92.20;;;;;;5102074;28;20034;-39
2022/01/02 19:02:46;;;;;;;14.00;5.70;;;11.00;92.80;;;;;;5080753;28;20054;-39
2022/01/02 19:05:12;;;;;;;16.40;4.90;;;10.90;92.80;;;;;;5081568;28;20100;-39
2022/01/02 19:07:41;;;;;;;10.77;4.50;;;10.90;93.10;;;;;;5082635;28;20037;-39
2022/01/02 19:10:11;;;;;;;13.88;5.53;;;10.90;93.10;;;;;;5082554;28;20032;-39
2022/01/02 19:12:37;;;;;;;14.32;4.65;;;10.90;93.30;;;;;;5081759;28;20032;-38
2022/01/02 19:15:05;;;;;;;8.32;4.95;;;10.80;93.50;;;;;;5080557;28;20024;-38
2022/01/02 19:17:31;;;;;;;8.48;5.18;;;10.80;93.50;;;;;;5081492;28;20032;-39
2022/01/02 19:19:57;;;;;;;5.88;4.43;;;10.80;93.20;;;;;;5081902;28;20040;-39
2022/01/02 19:22:27;;;;;;;11.55;5.93;;;10.80;93.30;;;;;;5083162;28;20028;-39
2022/01/02 19:24:56;;;;;;;9.45;2.97;;;10.80;93.30;;;;;;5082911;28;20096;-39
2022/01/02 19:27:23;;;;;;;8.32;3.67;;;10.70;93.30;;;;;;5081183;28;20024;-38
2022/01/02 19:29:51;;;;;;;8.57;3.95;;;10.70;92.70;;;;;;5081724;28;20090;-39
2022/01/02 19:32:21;;;;;;;10.65;3.40;;;10.60;92.90;;;;;;5083243;28;20032;-39
2022/01/02 19:34:47;;;;;;;4.70;3.63;;;10.60;93.10;;;;;;5083853;28;20511;-39
2022/01/02 19:37:15;;;;;;;4.82;2.78;;;10.50;92.90;;;;;;5084565;28;20020;-39
2022/01/02 19:39:45;;;;;;;10.98;3.83;;;10.50;92.60;;;;;;5084035;28;20429;-40
2022/01/02 19:42:11;;;;;;;7.47;2.45;;;10.50;92.60;;;;;;5084062;28;20039;-39
2022/01/02 19:44:40;;;;;;;6.78;3.08;;;10.40;92.80;;;;;;5080280;28;20423;-41
2022/01/02 19:47:16;;;;;;;6.70;2.90;;;10.30;92.80;;;;;;5083774;28;20139;-38
2022/01/02 19:49:43;;;;;;;4.88;2.72;;;10.30;92.90;;;;;;5085510;28;20469;-39
2022/01/02 19:52:13;;;;;;;5.07;2.53;;;10.30;92.90;;;;;;5082048;28;20028;-40
2022/01/02 19:54:40;;;;;;;3.42;2.38;;;10.30;93.30;;;;;;5084304;28;20025;-39
2022/01/02 19:57:06;;;;;;;14.93;4.50;;;10.30;93.40;;;;;;5084321;28;20028;-38
2022/01/02 19:59:36;;;;;;;5.53;3.08;;;10.30;93.60;;;;;;5084270;28;20081;-39
2022/01/02 20:02:02;;;;;;;;;;;10.30;93.60;;;;;;5097325;28;20036;-39
2022/01/02 20:04:28;;;;;;;6.85;3.65;;;10.30;93.80;;;;;;5105457;28;19904;-39
2022/01/02 20:06:54;;;;;;;9.75;4.50;;;10.30;93.80;;;;;;5104117;28;20024;-39
2022/01/02 20:09:19;;;;;;;7.43;2.88;;;10.30;93.90;;;;;;5101460;28;20044;-39
2022/01/02 20:11:45;;;;;;;12.60;4.07;;;10.30;94.20;;;;;;5096915;28;20031;-39
2022/01/02 20:14:11;;;;;;;7.82;3.70;;;10.30;94.60;;;;;;5096255;28;20103;-39
2022/01/02 20:16:37;;;;;;;21.63;6.20;;;10.20;94.80;;;;;;5096454;28;20036;-38
2022/01/02 20:19:03;;;;;;;8.27;4.30;;;10.30;95.10;;;;;;5078259;28;20024;-39
2022/01/02 20:21:29;;;;;;;11.45;3.83;;;10.30;95.20;;;;;;5095296;28;20467;-38
2022/01/02 20:23:55;;;;;;;8.13;3.60;;;10.30;95.40;;;;;;5095886;28;20027;-39
2022/01/02 20:26:21;;;;;;;3.20;1.67;;;10.30;95.40;;;;;;5077928;28;20135;-39
2022/01/02 20:28:47;;;;;;;1.92;1.63;;;10.10;93.60;;;;;;5096602;28;20082;-38
2022/01/02 20:31:13;;;;;;;3.63;1.55;;;10.10;92.30;;;;;;5095082;28;20073;-39
2022/01/02 20:33:42;;;;;;;1.58;1.40;;;10.10;92.40;;;;;;5094735;28;20063;-40
2022/01/02 20:36:08;;;;;;;2.50;1.27;;;10.10;92.50;;;;;;5095553;28;20030;-38
2022/01/02 20:38:34;;;;;;;2.42;1.48;;;10.20;91.80;;;;;;5095719;28;20495;-38
2022/01/02 20:41:00;;;;;;;2.10;1.90;;;10.20;91.60;;;;;;5095540;28;20040;-38
2022/01/02 20:43:27;;;;;;;1.70;1.35;;;10.30;90.30;;;;;;5095215;28;20034;-38
2022/01/02 20:45:53;;;;;;;8.50;5.32;;;10.50;89.80;;;;;;5094308;28;20020;-38
2022/01/02 20:48:19;;;;;;;2.97;1.55;;;10.40;89.90;;;;;;5098250;28;20020;-38
2022/01/02 20:50:54;;;;;;;3.03;1.52;;;10.40;90.00;;;;;;5079294;28;20024;-38
2022/01/02 20:53:20;;;;;;;2.28;1.15;;;10.40;89.50;;;;;;5094830;28;20069;-38
2022/01/02 20:55:46;;;;;;;1.38;1.00;;;10.30;89.70;;;;;;5095509;28;20063;-38
2022/01/02 20:58:13;;;;;;;2.53;1.00;;;10.40;88.40;;;;;;5077567;28;20055;-38
2022/01/02 21:00:39;;;;;;;8.77;2.33;;;10.60;87.40;;;;;;5094818;28;20375;-38
2022/01/02 21:03:06;;;;;;;2.55;1.15;;;10.60;86.60;;;;;;5094812;28;20031;-38
2022/01/02 21:05:32;;;;;;;2.03;0.80;;;10.60;86.90;;;;;;5094635;28;20357;-38
2022/01/02 21:07:58;;;;;;;0.70;0.70;;;10.60;87.00;;;;;;5094727;28;20027;-38
2022/01/02 21:10:24;;;;;;;1.40;0.70;;;10.50;87.20;;;;;;5093915;28;20024;-38
2022/01/02 21:12:50;;;;;;;2.88;1.23;;;10.50;87.10;;;;;;5093397;28;20024;-38
2022/01/02 21:15:16;;;;;;;1.45;0.90;;;10.70;86.20;;;;;;5094517;28;20531;-39
2022/01/02 21:17:43;;;;;;;0.98;0.63;;;10.80;85.60;;;;;;5094001;28;20032;-39
2022/01/02 21:20:12;;;;;;;4.25;1.55;;;10.70;85.90;;;;;;5076366;28;20035;-39
2022/01/02 21:22:38;;;;;;;1.55;0.73;;;10.80;85.70;;;;;;5077021;28;20036;-38
2022/01/02 21:25:06;;;;;;;2.30;1.42;;;10.80;85.20;;;;;;5095645;28;20028;-38
2022/01/02 21:27:33;;;;;;;2.10;0.88;;;10.90;84.80;;;;;;5095387;28;20028;-38
2022/01/02 21:29:59;;;;;;;4.95;0.70;;;10.80;85.10;;;;;;5093782;28;20027;-38
2022/01/02 21:32:24;;;;;;;4.90;0.85;;;10.80;85.40;;;;;;5096114;28;20024;-39
2022/01/02 21:34:50;;;;;;;2.40;1.10;;;10.80;85.70;;;;;;5094790;28;20063;-38
2022/01/02 21:37:16;;;;;;;4.15;0.93;;;10.80;85.50;;;;;;5093868;28;20031;-38
2022/01/02 21:39:42;;;;;;;4.88;1.10;;;10.80;85.60;;;;;;5094626;28;20390;-47
2022/01/02 21:42:08;;;;;;;3.90;0.80;;;10.70;86.00;;;;;;5094370;28;20043;-38
2022/01/02 21:44:37;;;;;;;5.32;1.17;;;10.70;86.10;;;;;;5093581;28;20388;-39
2022/01/02 21:47:03;;;;;;;4.57;1.33;;;10.70;86.10;;;;;;5094400;28;20047;-39
2022/01/02 21:49:29;;;;;;;4.30;1.33;;;10.80;85.80;;;;;;5075714;28;20020;-39
2022/01/02 21:51:54;;;;;;;10.18;2.92;;;10.80;85.80;;;;;;5093745;28;20020;-37
2022/01/02 21:54:20;;;;;;;6.05;1.63;;;10.80;85.50;;;;;;5093881;28;20032;-38
2022/01/02 21:56:46;;;;;;;2.78;1.30;;;10.80;85.20;;;;;;5094285;28;20024;-38
2022/01/02 21:59:11;;;;;;;5.65;1.50;;;10.80;85.80;;;;;;5094457;28;20032;-39
2022/01/02 22:01:43;;;;;;;5.25;1.63;;;10.80;85.90;;;;;;5092965;28;20048;-38
2022/01/02 22:04:09;;;;;;;4.28;1.27;;;10.80;86.20;;;;;;5076663;28;20073;-40
2022/01/02 22:06:38;;;;;;;3.30;1.30;;;10.80;86.30;;;;;;5093871;28;20472;-39
2022/01/02 22:09:06;;;;;;;2.30;1.60;;;10.80;86.40;;;;;;5094011;28;20024;-38
2022/01/02 22:11:32;;;;;;;4.65;1.23;;;10.80;86.50;;;;;;5094547;28;20099;-38
2022/01/02 22:13:58;;;;;;;4.75;1.70;;;10.80;86.20;;;;;;5075484;28;20038;-38
2022/01/02 22:16:24;;;;;;;6.50;1.60;;;10.80;86.90;;;;;;5094100;28;20024;-38
2022/01/02 22:18:49;;;;;;;2.78;1.52;;;10.70;87.00;;;;;;5093384;28;20058;-39
2022/01/02 22:21:20;;;;;;;4.70;2.22;;;10.70;86.80;;;;;;5093170;28;20495;-39
2022/01/02 22:23:48;;;;;;;2.00;1.55;;;10.80;86.80;;;;;;5095694;28;20028;-40
2022/01/02 22:26:15;;;;;;;5.07;1.60;;;10.80;86.60;;;;;;5098662;28;20016;-38
2022/01/02 22:28:46;;;;;;;3.33;1.40;;;10.80;86.90;;;;;;5098222;28;20353;-37
2022/01/02 22:31:18;;;;;;;13.45;2.75;;;10.80;87.00;;;;;;5097243;28;20051;-37
2022/01/02 22:33:49;;;;;;;2.65;1.67;;;10.80;86.90;;;;;;5098207;28;20028;-38
2022/01/02 22:36:19;;;;;;;10.70;3.90;;;10.80;86.60;;;;;;5097683;28;20101;-38
2022/01/02 22:38:49;;;;;;;3.92;1.83;;;10.90;86.30;;;;;;5097218;28;20024;-38
2022/01/02 22:41:15;;;;;;;3.33;1.67;;;10.90;86.00;;;;;;5097813;28;20365;-39
2022/01/02 22:43:41;;;;;;;5.70;1.80;;;10.90;86.00;;;;;;5097239;28;20128;-39